Time;durP1;ratioP1;P1;durP2;ratioP2;P2;SDS_P1;SDS_P2;PMS_P1;PMS_P2;Temp;Humidity;BMP_temperature;BMP_pressure;BME280_temperature;BME280_humidity;BME280_pressure;Samples;Min_cycle;Max_cycle;Signal;HPM_P1;HPM_P2
2022/05/30 00:00:14;;;;;;;3.50;1.30;;;11.10;73.90;;;;;;5117153;28;20382;-39
2022/05/30 00:02:40;;;;;;;5.38;1.60;;;11.00;74.00;;;;;;5116661;28;20031;-39
2022/05/30 00:05:09;;;;;;;4.80;1.50;;;11.00;74.20;;;;;;5116875;28;20027;-38
2022/05/30 00:07:36;;;;;;;4.82;1.67;;;10.90;74.30;;;;;;5115241;28;20015;-39
2022/05/30 00:10:02;;;;;;;4.03;1.48;;;10.90;74.50;;;;;;5116495;28;20031;-46
2022/05/30 00:12:28;;;;;;;6.88;1.25;;;10.80;74.70;;;;;;5116409;28;20063;-39
2022/05/30 00:14:54;;;;;;;3.30;1.30;;;10.80;74.90;;;;;;5116332;28;20015;-39
2022/05/30 00:17:19;;;;;;;4.20;1.60;;;10.80;75.00;;;;;;5116354;28;20025;-39
2022/05/30 00:19:45;;;;;;;3.22;1.23;;;10.70;75.00;;;;;;5116324;28;20428;-39
2022/05/30 00:22:14;;;;;;;4.90;1.42;;;10.80;75.10;;;;;;5116295;28;20076;-39
2022/05/30 00:24:41;;;;;;;4.43;1.65;;;10.70;75.20;;;;;;5114896;28;20077;-39
2022/05/30 00:27:08;;;;;;;4.68;1.40;;;10.70;75.30;;;;;;5116387;28;20016;-39
2022/05/30 00:29:34;;;;;;;4.70;1.50;;;10.70;75.50;;;;;;5116158;28;20035;-39
2022/05/30 00:32:00;;;;;;;5.80;1.70;;;10.70;75.60;;;;;;5116093;28;20028;-44
2022/05/30 00:34:26;;;;;;;6.47;1.50;;;10.70;75.60;;;;;;5116116;28;20467;-39
2022/05/30 00:36:52;;;;;;;6.05;1.50;;;10.70;75.80;;;;;;5116312;28;20062;-39
2022/05/30 00:39:18;;;;;;;5.15;1.60;;;10.60;75.90;;;;;;5114647;28;20058;-39
2022/05/30 00:41:43;;;;;;;4.07;1.35;;;10.50;76.00;;;;;;5116075;28;20039;-39
2022/05/30 00:44:09;;;;;;;3.75;1.55;;;10.50;76.10;;;;;;5115797;28;20038;-39
2022/05/30 00:46:35;;;;;;;4.75;1.73;;;10.50;76.30;;;;;;5115825;28;20027;-39
2022/05/30 00:49:05;;;;;;;6.50;1.52;;;10.40;76.40;;;;;;5115983;28;20015;-36
2022/05/30 00:51:41;;;;;;;5.68;1.70;;;10.40;76.50;;;;;;5115201;28;20476;-47
2022/05/30 00:54:10;;;;;;;6.75;1.90;;;10.30;76.70;;;;;;5115723;28;20107;-44
2022/05/30 00:56:39;;;;;;;2.78;1.50;;;10.30;76.70;;;;;;5115728;28;20137;-39
2022/05/30 00:59:06;;;;;;;4.18;1.58;;;10.30;76.80;;;;;;5115527;28;20044;-40
2022/05/30 01:01:33;;;;;;;4.10;1.38;;;10.30;76.90;;;;;;5115912;28;20562;-41
2022/05/30 01:06:47;;;;;;;4.28;1.70;;;10.20;77.00;;;;;;5115647;28;20034;-41
2022/05/30 01:09:17;;;;;;;7.88;1.70;;;10.10;77.10;;;;;;5115449;28;20046;-39
2022/05/30 01:12:03;;;;;;;3.88;1.45;;;10.10;77.20;;;;;;5115466;28;20032;-41
2022/05/30 01:14:38;;;;;;;4.20;1.50;;;10.10;77.40;;;;;;5115361;28;20051;-40
2022/05/30 01:17:08;;;;;;;8.90;1.98;;;10.00;77.40;;;;;;5115234;28;20100;-40
2022/05/30 01:19:42;;;;;;;4.78;1.55;;;10.00;77.40;;;;;;5115245;28;20028;-41
2022/05/30 01:22:26;;;;;;;2.97;1.63;;;10.00;77.50;;;;;;5115160;28;20026;-39
2022/05/30 01:25:01;;;;;;;4.15;1.50;;;9.90;77.50;;;;;;5115114;28;20395;-41
2022/05/30 01:27:38;;;;;;;3.45;1.50;;;9.90;77.60;;;;;;5115207;28;20019;-41
2022/05/30 01:30:11;;;;;;;6.18;1.55;;;9.90;77.60;;;;;;5115098;28;20474;-41
2022/05/30 01:32:37;;;;;;;3.95;1.40;;;9.90;77.70;;;;;;5114980;28;20031;-41
2022/05/30 01:35:03;;;;;;;8.90;1.67;;;9.90;77.70;;;;;;5114932;28;20471;-39
2022/05/30 01:37:29;;;;;;;4.53;1.60;;;9.90;77.70;;;;;;5114669;28;20038;-40
2022/05/30 01:39:54;;;;;;;3.92;1.45;;;9.80;77.70;;;;;;5114791;28;20024;-41
2022/05/30 01:42:21;;;;;;;4.63;1.15;;;9.80;77.80;;;;;;5115068;28;20426;-41
2022/05/30 01:44:46;;;;;;;6.28;1.40;;;9.80;77.90;;;;;;5114732;28;20031;-50
2022/05/30 01:47:12;;;;;;;3.70;1.50;;;9.80;78.00;;;;;;5115031;28;20027;-40
2022/05/30 01:49:38;;;;;;;4.50;1.50;;;9.80;78.60;;;;;;5114825;28;20015;-39
2022/05/30 01:52:04;;;;;;;5.57;1.58;;;9.70;78.00;;;;;;5114688;28;20490;-41
2022/05/30 01:54:30;;;;;;;5.82;1.40;;;9.70;78.10;;;;;;5114614;28;20378;-41
2022/05/30 01:56:55;;;;;;;4.85;1.55;;;9.70;78.20;;;;;;5114813;28;20355;-41
2022/05/30 01:59:21;;;;;;;3.58;1.60;;;9.70;78.30;;;;;;5114387;28;20116;-40
2022/05/30 02:01:47;;;;;;;5.97;1.77;;;9.60;78.40;;;;;;5112967;28;20481;-39
2022/05/30 02:04:14;;;;;;;5.70;1.60;;;9.70;78.50;;;;;;5114310;28;20027;-40
2022/05/30 02:06:39;;;;;;;3.45;1.50;;;9.60;78.50;;;;;;5114491;28;20035;-41
2022/05/30 02:09:06;;;;;;;3.55;1.50;;;9.60;78.60;;;;;;5113258;28;20044;-41
2022/05/30 02:11:33;;;;;;;3.88;1.50;;;9.60;78.70;;;;;;5114650;28;20341;-39
2022/05/30 02:13:59;;;;;;;5.15;1.63;;;9.60;78.80;;;;;;5114425;28;20475;-40
2022/05/30 02:19:09;;;;;;;5.20;1.65;;;9.60;78.80;;;;;;5114910;28;20084;-41
2022/05/30 02:21:36;;;;;;;4.55;1.92;;;9.60;78.80;;;;;;5112589;28;20036;-41
2022/05/30 02:24:03;;;;;;;4.43;1.55;;;9.60;78.80;;;;;;5113808;27;20020;-41
2022/05/30 02:26:29;;;;;;;5.82;1.63;;;9.60;78.80;;;;;;5113873;28;20027;-42
2022/05/30 02:28:55;;;;;;;5.13;1.77;;;9.60;78.80;;;;;;5113753;28;20016;-41
2022/05/30 02:31:20;;;;;;;5.15;1.60;;;9.60;78.80;;;;;;5113850;28;20023;-41
2022/05/30 02:36:39;;;;;;;4.80;1.70;;;9.50;78.90;;;;;;5113947;28;20420;-41
2022/05/30 02:39:06;;;;;;;4.90;1.80;;;9.50;78.80;;;;;;5114233;28;20027;-41
2022/05/30 02:41:32;;;;;;;4.15;1.70;;;9.50;78.80;;;;;;5113593;28;20076;-42
2022/05/30 02:43:57;;;;;;;5.65;1.60;;;9.50;78.90;;;;;;5113794;28;20383;-41
2022/05/30 02:46:24;;;;;;;3.90;2.05;;;9.50;78.90;;;;;;5113638;28;20024;-41
2022/05/30 02:48:49;;;;;;;4.68;1.55;;;9.50;79.00;;;;;;5113347;28;20016;-39
2022/05/30 02:51:15;;;;;;;7.60;1.70;;;9.40;79.00;;;;;;5113755;28;20023;-40
2022/05/30 02:53:40;;;;;;;3.95;1.60;;;9.40;79.20;;;;;;5113535;28;20107;-39
2022/05/30 02:56:06;;;;;;;3.33;2.13;;;9.40;79.40;;;;;;5113488;28;20027;-41
2022/05/30 02:58:32;;;;;;;2.97;1.60;;;9.30;79.50;;;;;;5113310;28;20123;-41
2022/05/30 03:00:58;;;;;;;4.20;1.63;;;9.30;79.60;;;;;;5113302;28;20084;-41
2022/05/30 03:03:23;;;;;;;4.47;1.77;;;9.30;79.60;;;;;;5113556;28;20032;-40
2022/05/30 03:05:49;;;;;;;4.15;1.77;;;9.20;79.70;;;;;;5113259;28;20020;-40
2022/05/30 03:08:15;;;;;;;3.08;1.70;;;9.20;79.80;;;;;;5113527;28;20475;-39
2022/05/30 03:10:40;;;;;;;3.15;1.67;;;9.20;79.80;;;;;;5113489;28;20085;-39
2022/05/30 03:13:07;;;;;;;4.72;1.80;;;9.10;79.90;;;;;;5111497;28;20027;-39
2022/05/30 03:15:33;;;;;;;4.55;1.95;;;9.10;79.90;;;;;;5113311;28;20067;-43
2022/05/30 03:17:59;;;;;;;6.47;1.90;;;9.10;80.00;;;;;;5113262;28;20059;-38
2022/05/30 03:20:25;;;;;;;2.92;1.70;;;9.10;80.10;;;;;;5113468;28;20031;-44
2022/05/30 03:22:50;;;;;;;4.43;1.98;;;9.10;80.10;;;;;;5113275;28;20055;-38
2022/05/30 03:25:17;;;;;;;6.15;1.88;;;9.10;80.80;;;;;;5113059;28;20055;-39
2022/05/30 03:27:43;;;;;;;4.65;1.90;;;9.10;80.20;;;;;;5113056;28;20024;-38
2022/05/30 03:30:10;;;;;;;6.93;2.17;;;9.10;80.30;;;;;;5113296;28;20392;-39
2022/05/30 03:32:36;;;;;;;4.35;1.83;;;9.10;80.30;;;;;;5113248;28;20088;-47
2022/05/30 03:35:01;;;;;;;5.70;2.10;;;9.10;80.40;;;;;;5113133;28;20035;-38
2022/05/30 03:37:27;;;;;;;5.25;1.65;;;9.10;80.40;;;;;;5113057;28;20028;-39
2022/05/30 03:39:53;;;;;;;2.90;1.80;;;9.10;80.50;;;;;;5112952;28;20031;-40
2022/05/30 03:42:19;;;;;;;5.88;2.38;;;9.10;80.40;;;;;;5113158;28;20019;-39
2022/05/30 03:44:45;;;;;;;4.55;1.85;;;9.20;80.50;;;;;;5113042;28;20454;-38
2022/05/30 03:47:11;;;;;;;3.42;1.88;;;9.20;80.50;;;;;;5112811;28;20024;-39
2022/05/30 03:49:37;;;;;;;3.50;2.10;;;9.20;80.40;;;;;;5113224;28;20119;-39
2022/05/30 03:52:04;;;;;;;5.43;2.40;;;9.30;80.50;;;;;;5112788;28;20036;-39
2022/05/30 03:54:30;;;;;;;2.90;1.98;;;9.30;80.40;;;;;;5112782;28;20028;-39
2022/05/30 03:56:55;;;;;;;5.75;2.03;;;9.40;80.50;;;;;;5112976;28;20088;-39
2022/05/30 03:59:21;;;;;;;5.60;1.85;;;9.40;80.50;;;;;;5112636;28;20147;-39
2022/05/30 04:01:47;;;;;;;3.55;2.05;;;9.40;80.50;;;;;;5112795;28;20032;-37
2022/05/30 04:04:13;;;;;;;5.28;1.92;;;9.50;80.50;;;;;;5112384;28;20023;-40
2022/05/30 04:06:39;;;;;;;4.28;1.90;;;9.50;80.40;;;;;;5112954;28;20020;-38
2022/05/30 04:09:06;;;;;;;6.70;1.90;;;9.60;80.40;;;;;;5112805;28;20043;-38
2022/05/30 04:11:31;;;;;;;3.40;1.80;;;9.70;80.30;;;;;;5111443;28;20084;-39
2022/05/30 04:13:57;;;;;;;4.22;2.13;;;9.70;80.20;;;;;;5112838;28;20031;-39
2022/05/30 04:16:23;;;;;;;4.97;1.80;;;9.80;80.10;;;;;;5113001;28;20574;-39
2022/05/30 04:18:49;;;;;;;3.22;1.85;;;9.90;80.10;;;;;;5111660;28;20027;-39
2022/05/30 04:21:14;;;;;;;3.20;1.83;;;9.90;79.90;;;;;;5112818;28;20102;-40
2022/05/30 04:23:42;;;;;;;5.70;2.22;;;10.00;79.90;;;;;;5112537;28;20040;-39
2022/05/30 04:26:09;;;;;;;4.55;2.03;;;10.00;79.90;;;;;;5116429;28;20043;-39
2022/05/30 04:28:34;;;;;;;3.65;1.70;;;10.00;79.80;;;;;;5116423;28;20100;-39
2022/05/30 04:31:05;;;;;;;5.15;1.90;;;10.00;79.70;;;;;;5116182;28;20027;-40
2022/05/30 04:33:33;;;;;;;4.60;1.90;;;10.10;79.80;;;;;;5116084;28;20507;-40
2022/05/30 04:35:59;;;;;;;3.45;1.70;;;10.10;80.30;;;;;;5116315;28;20023;-40
2022/05/30 04:38:25;;;;;;;5.20;2.20;;;10.10;79.60;;;;;;5116020;28;20028;-40
2022/05/30 04:40:50;;;;;;;2.80;1.83;;;10.10;79.60;;;;;;5115999;28;20386;-43
2022/05/30 04:43:16;;;;;;;4.45;2.17;;;10.10;79.60;;;;;;5116193;28;20023;-39
2022/05/30 04:45:41;;;;;;;4.45;2.00;;;10.10;79.70;;;;;;5115777;28;20043;-38
2022/05/30 04:48:07;;;;;;;3.40;1.60;;;10.10;79.70;;;;;;5115828;28;20024;-39
2022/05/30 04:50:33;;;;;;;4.53;2.10;;;10.10;79.70;;;;;;5116202;28;20030;-40
2022/05/30 04:52:59;;;;;;;4.47;1.85;;;10.10;79.70;;;;;;5115926;28;20493;-40
2022/05/30 04:55:24;;;;;;;5.88;2.28;;;10.20;79.70;;;;;;5115955;28;20027;-42
2022/05/30 04:57:51;;;;;;;3.92;1.98;;;10.20;79.70;;;;;;5115518;28;20026;-44
2022/05/30 05:00:20;;;;;;;3.85;1.60;;;10.20;79.60;;;;;;5115926;28;20393;-40
2022/05/30 05:02:46;;;;;;;4.00;2.10;;;10.30;79.60;;;;;;5115871;28;20020;-38
2022/05/30 05:05:12;;;;;;;2.85;1.48;;;10.30;79.40;;;;;;5115476;28;20027;-40
2022/05/30 05:08:01;;;;;;;2.67;1.60;;;10.40;79.30;;;;;;5115748;28;20012;-40
2022/05/30 05:10:46;;;;;;;3.17;1.58;;;10.50;79.20;;;;;;5095551;28;20032;-40
2022/05/30 05:13:12;;;;;;;4.97;1.55;;;10.50;79.00;;;;;;5115455;28;20059;-40
2022/05/30 05:15:37;;;;;;;2.17;1.40;;;10.50;79.00;;;;;;5115388;28;20432;-39
2022/05/30 05:18:03;;;;;;;2.50;1.60;;;10.50;78.90;;;;;;5115278;28;20088;-40
2022/05/30 05:20:29;;;;;;;3.13;1.33;;;10.60;78.80;;;;;;5115262;28;20038;-39
2022/05/30 05:22:55;;;;;;;4.15;1.67;;;10.60;78.70;;;;;;5113879;28;20027;-38
2022/05/30 05:25:21;;;;;;;2.28;1.27;;;10.70;78.50;;;;;;5115198;28;20072;-40
2022/05/30 05:27:50;;;;;;;2.97;1.42;;;10.70;78.40;;;;;;5115402;28;20107;-39
2022/05/30 05:30:16;;;;;;;3.17;1.40;;;10.70;78.30;;;;;;5115046;28;20072;-40
2022/05/30 05:32:41;;;;;;;3.65;1.42;;;10.80;78.30;;;;;;5115151;28;20103;-42
2022/05/30 05:35:07;;;;;;;2.40;1.50;;;10.80;78.10;;;;;;5115023;28;20076;-40
2022/05/30 05:37:34;;;;;;;2.85;1.30;;;10.90;78.00;;;;;;5114752;27;20033;-40
2022/05/30 05:40:00;;;;;;;2.40;1.30;;;11.00;77.80;;;;;;5114897;28;20023;-40
2022/05/30 05:42:25;;;;;;;4.15;1.60;;;11.10;77.60;;;;;;5114813;28;20117;-39
2022/05/30 05:44:51;;;;;;;2.33;1.30;;;11.20;77.30;;;;;;5114911;28;20020;-39
2022/05/30 05:47:16;;;;;;;5.35;1.50;;;11.30;77.10;;;;;;5114879;28;20015;-40
2022/05/30 05:49:42;;;;;;;3.00;1.40;;;11.50;76.80;;;;;;5113180;28;20155;-38
2022/05/30 05:52:08;;;;;;;2.67;2.47;;;11.50;76.60;;;;;;5114798;28;20046;-39
2022/05/30 05:54:33;;;;;;;2.35;1.25;;;11.50;76.40;;;;;;5113186;28;20114;-40
2022/05/30 05:56:59;;;;;;;5.03;1.50;;;11.50;76.20;;;;;;5114447;28;20023;-40
2022/05/30 05:59:25;;;;;;;1.55;1.00;;;11.60;76.20;;;;;;5114291;28;20537;-39
2022/05/30 06:01:51;;;;;;;1.90;1.20;;;11.60;76.20;;;;;;5114598;28;20378;-40
2022/05/30 06:04:16;;;;;;;2.45;1.20;;;11.60;75.90;;;;;;5114177;28;20024;-40
2022/05/30 06:06:43;;;;;;;3.58;1.30;;;11.70;75.70;;;;;;5114239;28;20477;-39
2022/05/30 06:09:08;;;;;;;1.83;1.00;;;11.70;75.50;;;;;;5114536;28;20024;-40
2022/05/30 06:11:34;;;;;;;3.17;1.02;;;11.80;75.30;;;;;;5112939;28;20024;-40
2022/05/30 06:14:00;;;;;;;3.10;0.88;;;11.90;74.90;;;;;;5114401;28;20055;-40
2022/05/30 06:16:31;;;;;;;1.42;1.00;;;11.90;74.40;;;;;;5114160;28;20032;-41
2022/05/30 06:18:59;;;;;;;1.55;0.60;;;11.90;73.80;;;;;;5114271;28;20019;-40
2022/05/30 06:21:26;;;;;;;2.13;0.82;;;12.00;73.20;;;;;;5114094;28;20603;-39
2022/05/30 06:23:52;;;;;;;4.15;0.60;;;12.00;72.80;;;;;;5114064;28;20107;-39
2022/05/30 06:26:18;;;;;;;2.70;0.63;;;12.00;72.50;;;;;;5113781;28;20093;-39
2022/05/30 06:28:44;;;;;;;2.50;0.70;;;12.10;72.30;;;;;;5113905;28;20019;-37
2022/05/30 06:31:18;;;;;;;2.28;0.82;;;12.10;71.70;;;;;;5112496;28;20043;-39
2022/05/30 06:33:44;;;;;;;2.08;0.57;;;12.10;71.60;;;;;;5112319;28;20115;-37
2022/05/30 06:36:15;;;;;;;1.73;0.57;;;12.20;71.40;;;;;;5113566;27;20074;-39
2022/05/30 06:38:41;;;;;;;1.45;0.70;;;12.20;71.20;;;;;;5113649;28;20474;-39
2022/05/30 06:41:11;;;;;;;5.00;0.73;;;12.30;70.80;;;;;;5113555;28;20016;-39
2022/05/30 06:43:36;;;;;;;1.65;0.68;;;12.40;70.30;;;;;;5113750;28;20015;-39
2022/05/30 06:46:02;;;;;;;2.22;0.80;;;12.40;69.90;;;;;;5113472;28;20023;-38
2022/05/30 06:48:28;;;;;;;2.17;0.60;;;12.40;70.00;;;;;;5112796;28;20058;-45
2022/05/30 06:50:54;;;;;;;1.83;0.60;;;12.40;69.80;;;;;;5113565;28;20518;-39
2022/05/30 06:53:20;;;;;;;1.85;0.60;;;12.40;69.70;;;;;;5113206;28;20023;-39
2022/05/30 06:55:49;;;;;;;2.85;0.60;;;12.50;69.50;;;;;;5113326;28;20433;-39
2022/05/30 06:58:18;;;;;;;3.03;0.60;;;12.60;69.30;;;;;;5113233;28;20135;-39
2022/05/30 07:00:46;;;;;;;4.80;0.50;;;12.70;69.00;;;;;;5113792;28;20138;-39
2022/05/30 07:06:34;;;;;;;2.22;0.60;;;12.90;68.60;;;;;;5113650;28;20095;-40
2022/05/30 07:09:01;;;;;;;0.38;0.38;;;13.10;68.30;;;;;;5113311;28;20024;-43
2022/05/30 07:11:27;;;;;;;2.83;0.68;;;13.10;68.10;;;;;;5113361;28;20023;-40
2022/05/30 07:13:53;;;;;;;1.83;0.68;;;13.20;67.90;;;;;;5113554;28;20019;-40
2022/05/30 07:16:19;;;;;;;1.30;0.60;;;13.20;68.20;;;;;;5113580;28;20049;-40
2022/05/30 07:18:46;;;;;;;2.60;0.70;;;13.40;67.60;;;;;;5113468;28;20360;-40
2022/05/30 07:21:13;;;;;;;4.45;0.70;;;13.30;67.50;;;;;;5113652;28;20036;-41
2022/05/30 07:23:39;;;;;;;1.80;0.70;;;13.50;67.40;;;;;;5111447;28;20031;-39
2022/05/30 07:26:08;;;;;;;1.55;0.60;;;13.60;67.30;;;;;;5113329;28;20023;-40
2022/05/30 07:28:34;;;;;;;2.17;0.70;;;13.60;67.00;;;;;;5113141;28;20368;-40
2022/05/30 07:31:09;;;;;;;2.15;0.60;;;13.70;67.00;;;;;;5113070;28;20076;-41
2022/05/30 07:33:38;;;;;;;1.08;0.50;;;13.70;66.90;;;;;;5113168;28;20020;-39
2022/05/30 07:36:08;;;;;;;1.98;0.57;;;13.80;66.60;;;;;;5113236;28;20050;-44
2022/05/30 07:38:34;;;;;;;1.95;0.70;;;13.80;66.40;;;;;;5113239;28;20062;-38
2022/05/30 07:41:00;;;;;;;2.30;0.60;;;13.70;66.40;;;;;;5113246;28;20020;-40
2022/05/30 07:43:26;;;;;;;1.73;0.57;;;13.70;66.60;;;;;;5113173;28;20043;-39
2022/05/30 07:45:52;;;;;;;6.72;0.80;;;13.60;66.20;;;;;;5112866;28;20030;-40
2022/05/30 07:48:19;;;;;;;2.67;0.80;;;13.60;66.30;;;;;;5112910;28;20030;-40
2022/05/30 07:50:44;;;;;;;3.60;0.90;;;13.50;66.40;;;;;;5113173;28;20092;-40
2022/05/30 07:53:10;;;;;;;3.65;0.70;;;13.50;66.30;;;;;;5113516;28;20078;-40
2022/05/30 07:55:39;;;;;;;1.40;0.60;;;13.50;66.10;;;;;;5113048;28;20535;-42
2022/05/30 07:58:04;;;;;;;1.85;0.68;;;13.50;66.00;;;;;;5113095;28;20048;-40
2022/05/30 08:00:32;;;;;;;2.20;0.70;;;13.60;66.00;;;;;;5115818;28;20034;-40
2022/05/30 08:02:59;;;;;;;2.83;0.70;;;13.60;66.00;;;;;;5116852;28;20031;-40
2022/05/30 08:05:24;;;;;;;1.90;0.70;;;13.70;65.90;;;;;;5116788;28;20374;-40
2022/05/30 08:07:52;;;;;;;4.22;0.60;;;13.80;65.90;;;;;;5116702;28;20020;-40
2022/05/30 08:10:18;;;;;;;1.40;0.52;;;13.90;65.80;;;;;;5116629;28;20106;-39
2022/05/30 08:12:44;;;;;;;4.05;0.82;;;14.00;65.50;;;;;;5116943;27;20015;-43
2022/05/30 08:15:11;;;;;;;3.03;0.73;;;14.00;65.20;;;;;;5116700;28;20073;-39
2022/05/30 08:17:37;;;;;;;2.13;0.70;;;14.10;65.10;;;;;;5116618;28;20085;-38
2022/05/30 08:20:05;;;;;;;2.17;0.60;;;14.10;64.80;;;;;;5116805;27;20035;-40
2022/05/30 08:22:34;;;;;;;3.80;0.80;;;14.10;64.70;;;;;;5116551;28;20024;-39
2022/05/30 08:25:03;;;;;;;1.55;0.60;;;14.20;64.60;;;;;;5116433;28;20081;-40
2022/05/30 08:27:29;;;;;;;2.35;0.50;;;14.30;64.50;;;;;;5116237;28;20015;-41
2022/05/30 08:29:55;;;;;;;1.55;0.57;;;14.40;64.30;;;;;;5116369;28;20024;-39
2022/05/30 08:32:21;;;;;;;4.13;0.73;;;14.40;64.10;;;;;;5116418;28;20015;-40
2022/05/30 08:34:46;;;;;;;1.45;0.60;;;14.40;64.10;;;;;;5116193;28;20038;-40
2022/05/30 08:37:12;;;;;;;2.17;0.40;;;14.50;64.10;;;;;;5115665;28;20023;-41
2022/05/30 08:42:29;;;;;;;3.90;0.80;;;14.60;63.80;;;;;;5116134;28;20043;-41
2022/05/30 08:44:57;;;;;;;2.58;0.57;;;14.60;63.00;;;;;;5116316;28;20466;-40
2022/05/30 08:47:55;;;;;;;1.48;0.50;;;14.60;63.10;;;;;;5116309;28;20016;-40
2022/05/30 08:50:44;;;;;;;1.83;0.57;;;14.70;63.10;;;;;;5116494;28;20027;-39
2022/05/30 08:53:24;;;;;;;0.65;0.40;;;14.70;63.00;;;;;;5115883;28;20020;-40
2022/05/30 08:55:57;;;;;;;2.15;0.70;;;14.70;62.70;;;;;;5115997;28;20052;-40
2022/05/30 08:58:50;;;;;;;3.75;0.80;;;14.80;62.60;;;;;;5114391;28;20043;-39
2022/05/30 09:01:31;;;;;;;1.75;0.60;;;14.80;62.50;;;;;;5115626;28;20054;-40
2022/05/30 09:04:17;;;;;;;1.83;0.70;;;14.90;63.20;;;;;;5114742;28;20028;-44
2022/05/30 09:06:47;;;;;;;1.38;0.60;;;15.00;62.30;;;;;;5115835;27;20095;-41
2022/05/30 09:09:22;;;;;;;1.13;0.43;;;15.10;62.20;;;;;;5115677;28;20030;-39
2022/05/30 09:11:55;;;;;;;2.15;0.60;;;15.20;62.10;;;;;;5114469;28;20023;-40
2022/05/30 09:14:49;;;;;;;1.58;0.60;;;15.40;61.70;;;;;;5115463;28;20024;-39
2022/05/30 09:17:26;;;;;;;2.70;0.60;;;15.50;61.10;;;;;;5100252;28;20067;-40
2022/05/30 09:19:55;;;;;;;1.80;0.57;;;15.60;61.10;;;;;;5115555;28;20023;-41
2022/05/30 09:22:24;;;;;;;3.45;0.50;;;15.70;60.60;;;;;;5115462;28;20062;-40
2022/05/30 09:27:34;;;;;;;1.05;0.32;;;15.70;60.10;;;;;;5115692;28;20035;-40
2022/05/30 09:30:00;;;;;;;1.77;0.40;;;15.70;60.10;;;;;;5115207;28;20016;-39
2022/05/30 09:32:28;;;;;;;1.00;0.50;;;15.70;59.90;;;;;;5115196;28;20068;-39
2022/05/30 09:34:54;;;;;;;3.17;0.60;;;15.70;59.60;;;;;;5115254;28;20085;-41
2022/05/30 09:37:41;;;;;;;1.02;0.40;;;15.60;59.40;;;;;;5115382;28;20027;-40
2022/05/30 09:40:07;;;;;;;2.25;0.60;;;15.60;59.60;;;;;;5115243;28;20024;-39
2022/05/30 09:42:47;;;;;;;2.13;0.50;;;15.50;59.40;;;;;;5114933;28;20107;-39
2022/05/30 09:48:36;;;;;;;2.78;0.40;;;15.20;59.40;;;;;;5115206;28;20072;-41
2022/05/30 09:51:01;;;;;;;1.45;0.50;;;15.30;59.50;;;;;;5114640;28;20023;-41
2022/05/30 09:53:48;;;;;;;2.72;0.43;;;15.40;59.40;;;;;;5114944;28;20023;-41
2022/05/30 09:56:17;;;;;;;0.65;0.40;;;15.50;59.00;;;;;;5114896;28;20031;-40
2022/05/30 09:58:48;;;;;;;1.25;0.47;;;15.60;58.50;;;;;;5114608;28;20418;-42
2022/05/30 10:01:24;;;;;;;0.77;0.40;;;15.80;58.30;;;;;;5114568;28;20024;-39
2022/05/30 10:03:54;;;;;;;0.93;0.47;;;16.00;57.90;;;;;;5114464;28;20023;-39
2022/05/30 10:06:24;;;;;;;0.68;0.32;;;16.00;57.70;;;;;;5114733;28;20102;-39
2022/05/30 10:08:51;;;;;;;1.05;0.38;;;16.20;57.50;;;;;;5114757;28;20059;-39
2022/05/30 10:11:30;;;;;;;2.08;0.50;;;16.30;57.40;;;;;;5114266;28;20107;-39
2022/05/30 10:13:55;;;;;;;0.85;0.50;;;16.30;56.90;;;;;;5114119;28;20035;-39
2022/05/30 10:16:33;;;;;;;2.28;0.70;;;16.40;56.80;;;;;;5114246;28;20064;-39
2022/05/30 10:19:05;;;;;;;3.13;0.75;;;16.30;56.40;;;;;;5114436;28;20072;-39
2022/05/30 10:21:36;;;;;;;2.05;0.88;;;16.20;56.60;;;;;;5114388;28;20026;-39
2022/05/30 10:30:49;;;;;;;1.10;0.57;;;15.60;56.80;;;;;;5114113;28;20112;-39
2022/05/30 10:33:43;;;;;;;1.00;0.70;;;15.30;57.40;;;;;;5114025;28;20461;-39
2022/05/30 10:36:18;;;;;;;3.75;0.90;;;15.10;57.80;;;;;;5113988;28;20024;-39
2022/05/30 10:39:13;;;;;;;3.00;1.02;;;15.00;58.10;;;;;;5113719;28;20110;-41
2022/05/30 10:41:47;;;;;;;2.03;1.05;;;14.90;58.20;;;;;;5113809;28;20016;-38
2022/05/30 10:44:23;;;;;;;4.57;1.27;;;14.80;58.30;;;;;;5113531;28;20027;-39
2022/05/30 10:47:12;;;;;;;2.25;0.93;;;14.70;58.10;;;;;;5113504;28;20020;-39
2022/05/30 10:49:43;;;;;;;1.85;1.02;;;14.50;58.30;;;;;;5113494;28;20065;-38
2022/05/30 10:52:23;;;;;;;3.45;0.80;;;14.40;58.60;;;;;;5113651;28;20076;-39
2022/05/30 10:54:56;;;;;;;2.90;1.02;;;14.40;58.90;;;;;;5113446;28;20195;-39
2022/05/30 10:57:32;;;;;;;1.75;0.80;;;14.40;58.90;;;;;;5113607;28;20024;-40
2022/05/30 11:00:18;;;;;;;2.03;0.80;;;14.40;59.50;;;;;;5113189;28;20079;-40
2022/05/30 11:03:12;;;;;;;2.85;1.00;;;14.40;59.10;;;;;;5113522;28;20098;-39
2022/05/30 11:05:49;;;;;;;2.40;1.05;;;14.40;58.70;;;;;;5113558;28;20039;-43
2022/05/30 11:08:25;;;;;;;3.13;1.15;;;14.30;58.90;;;;;;5113837;28;20020;-44
2022/05/30 11:11:15;;;;;;;4.07;1.00;;;14.30;58.80;;;;;;5113083;28;20031;-39
2022/05/30 11:14:09;;;;;;;4.45;0.85;;;14.40;58.80;;;;;;5113487;28;20026;-38
2022/05/30 11:16:48;;;;;;;3.42;0.90;;;14.40;58.80;;;;;;5113363;28;20041;-42
2022/05/30 11:19:25;;;;;;;1.15;0.70;;;14.30;58.90;;;;;;5113265;28;20063;-39
2022/05/30 11:21:59;;;;;;;2.15;0.82;;;14.40;59.00;;;;;;5113344;28;20019;-43
2022/05/30 11:24:25;;;;;;;2.60;0.95;;;14.50;58.60;;;;;;5113056;28;20023;-39
2022/05/30 11:27:14;;;;;;;1.13;0.85;;;14.50;58.10;;;;;;5113306;28;20106;-39
2022/05/30 11:30:07;;;;;;;3.30;0.95;;;14.50;57.80;;;;;;5112869;28;20012;-40
2022/05/30 11:33:16;;;;;;;1.85;0.90;;;14.50;57.40;;;;;;5112828;28;20463;-38
2022/05/30 11:36:08;;;;;;;3.10;0.80;;;14.50;57.20;;;;;;5100039;28;20035;-40
2022/05/30 11:38:39;;;;;;;2.45;0.70;;;14.60;57.20;;;;;;5117287;28;20076;-39
2022/05/30 11:41:16;;;;;;;2.17;0.93;;;14.70;57.90;;;;;;5117488;28;20400;-40
2022/05/30 11:44:03;;;;;;;3.47;0.90;;;14.70;57.20;;;;;;5117584;28;20399;-39
2022/05/30 11:46:54;;;;;;;2.75;0.90;;;14.80;57.10;;;;;;5117593;28;20490;-46
2022/05/30 11:49:35;;;;;;;2.30;0.80;;;14.90;57.20;;;;;;5117122;27;20023;-44
2022/05/30 11:52:33;;;;;;;0.98;0.80;;;15.00;57.10;;;;;;5117171;28;20056;-40
2022/05/30 11:55:20;;;;;;;2.40;0.80;;;15.10;56.80;;;;;;5079358;28;20037;-40
2022/05/30 11:58:17;;;;;;;1.27;0.70;;;15.10;56.70;;;;;;5117588;28;20027;-41
2022/05/30 12:00:47;;;;;;;1.58;0.63;;;15.10;56.20;;;;;;5114049;28;20035;-40
2022/05/30 12:03:37;;;;;;;3.33;0.90;;;15.10;56.40;;;;;;5117189;28;20058;-39
2022/05/30 12:06:21;;;;;;;2.45;0.75;;;15.20;56.40;;;;;;5116940;28;20042;-41
2022/05/30 12:09:10;;;;;;;2.42;0.90;;;15.30;56.40;;;;;;5116967;28;20464;-46
2022/05/30 12:11:56;;;;;;;2.45;0.70;;;15.40;56.30;;;;;;5116912;28;20024;-39
2022/05/30 12:14:24;;;;;;;1.50;0.80;;;15.40;56.20;;;;;;5116646;28;20024;-39
2022/05/30 12:17:19;;;;;;;2.67;0.90;;;15.50;56.00;;;;;;5117067;28;20077;-40
2022/05/30 12:25:51;;;;;;;2.28;0.80;;;15.90;55.80;;;;;;5116271;28;20039;-40
2022/05/30 12:28:32;;;;;;;1.80;0.90;;;16.00;55.60;;;;;;5116292;28;20023;-40
2022/05/30 12:31:00;;;;;;;1.75;0.70;;;16.10;55.40;;;;;;5116297;27;20076;-40
2022/05/30 12:33:47;;;;;;;2.08;0.80;;;16.20;55.40;;;;;;5116287;28;20455;-41
2022/05/30 12:36:16;;;;;;;2.90;0.80;;;16.30;55.00;;;;;;5114913;28;20501;-40
2022/05/30 12:38:53;;;;;;;1.75;0.80;;;16.40;55.00;;;;;;5116446;28;20085;-40
2022/05/30 12:41:28;;;;;;;2.13;0.90;;;16.40;54.70;;;;;;5116349;28;20467;-43
2022/05/30 12:43:54;;;;;;;2.80;1.20;;;16.40;54.90;;;;;;5115936;27;20023;-39
2022/05/30 12:46:26;;;;;;;4.80;1.00;;;16.60;54.90;;;;;;5114985;28;20069;-41
2022/05/30 12:48:58;;;;;;;1.50;1.00;;;16.70;54.60;;;;;;5116031;28;20016;-39
2022/05/30 12:51:35;;;;;;;3.72;0.93;;;16.80;54.50;;;;;;5116765;28;20046;-40
2022/05/30 12:54:01;;;;;;;4.30;0.93;;;16.90;54.20;;;;;;5116094;28;20028;-40
2022/05/30 12:56:43;;;;;;;2.40;0.90;;;17.00;54.20;;;;;;5116143;28;20023;-40
2022/05/30 12:59:11;;;;;;;2.83;1.00;;;17.00;54.00;;;;;;5115741;28;20062;-39
2022/05/30 13:01:42;;;;;;;3.30;0.90;;;17.20;53.80;;;;;;5116134;28;20352;-41
2022/05/30 13:04:35;;;;;;;1.92;0.90;;;17.20;53.50;;;;;;5115651;28;20024;-39
2022/05/30 13:07:04;;;;;;;2.33;0.85;;;17.30;53.40;;;;;;5115646;28;20027;-49
2022/05/30 13:09:36;;;;;;;1.60;0.93;;;17.50;53.90;;;;;;5115978;28;20442;-41
2022/05/30 13:12:10;;;;;;;2.65;1.00;;;17.70;52.90;;;;;;5115786;28;20106;-46
2022/05/30 13:14:57;;;;;;;2.05;0.93;;;17.80;52.30;;;;;;5115781;28;20471;-61
2022/05/30 13:17:54;;;;;;;2.10;1.00;;;17.90;52.00;;;;;;5115621;28;20028;-40
2022/05/30 13:20:27;;;;;;;2.00;0.88;;;18.00;52.20;;;;;;5113169;28;20027;-40
2022/05/30 13:22:55;;;;;;;1.60;0.97;;;18.30;51.90;;;;;;5114122;28;20517;-40
2022/05/30 13:25:30;;;;;;;2.03;0.85;;;18.50;51.70;;;;;;5115256;28;20036;-40
2022/05/30 13:28:04;;;;;;;1.52;0.90;;;18.70;51.10;;;;;;5115433;28;20383;-43
2022/05/30 13:30:30;;;;;;;1.48;0.70;;;19.00;50.30;;;;;;5115139;27;20043;-50
2022/05/30 13:32:56;;;;;;;1.85;0.70;;;19.20;49.90;;;;;;5113772;28;20104;-40
2022/05/30 13:35:29;;;;;;;2.47;0.70;;;19.40;49.80;;;;;;5115123;28;20570;-40
2022/05/30 13:38:08;;;;;;;1.20;0.40;;;19.80;49.50;;;;;;5114960;28;20020;-40